createdAt,value
2019-02-08T00:02:19.043Z,3.70
2019-02-08T00:04:52.632Z,3.80
2019-02-08T00:08:00.356Z,3.70
2019-02-08T00:10:38.304Z,3.70
2019-02-08T00:13:22.321Z,3.70
2019-02-08T00:16:05.383Z,3.70
2019-02-08T00:18:53.107Z,3.80
2019-02-08T00:21:26.121Z,3.70
2019-02-08T00:24:04.629Z,3.70
2019-02-08T00:26:44.284Z,3.70
2019-02-08T00:29:29.918Z,3.80
2019-02-08T00:32:07.241Z,3.80
2019-02-08T00:34:50.081Z,3.80
2019-02-08T00:37:33.084Z,3.80
2019-02-08T00:40:16.211Z,3.80
2019-02-08T00:42:55.319Z,3.70
2019-02-08T00:45:27.631Z,3.70
2019-02-08T00:48:04.508Z,3.70
2019-02-08T00:50:35.344Z,3.70
2019-02-08T00:53:06.424Z,3.70
2019-02-08T00:55:39.687Z,3.70
2019-02-08T00:58:18.573Z,3.70
2019-02-08T01:00:50.700Z,3.60
2019-02-08T01:03:32.886Z,3.70
2019-02-08T01:06:10.038Z,3.60
2019-02-08T01:08:56.950Z,3.60
2019-02-08T01:11:40.008Z,3.60
2019-02-08T01:14:12.802Z,3.70
2019-02-08T01:16:45.685Z,3.70
2019-02-08T01:19:16.005Z,3.60
2019-02-08T01:21:45.597Z,3.60
2019-02-08T01:24:18.492Z,3.60
2019-02-08T01:26:47.740Z,3.60
2019-02-08T01:29:31.854Z,3.60
2019-02-08T01:32:17.458Z,3.50
2019-02-08T01:34:54.778Z,3.50
2019-02-08T01:37:42.123Z,3.40
2019-02-08T01:40:23.006Z,3.40
2019-02-08T01:43:04.463Z,3.30
2019-02-08T01:45:43.967Z,3.30
2019-02-08T01:48:44.293Z,3.30
2019-02-08T01:51:22.975Z,3.30
2019-02-08T01:54:20.720Z,3.20
2019-02-08T01:57:05.527Z,3.20
2019-02-08T02:00:11.409Z,3.20
2019-02-08T02:02:59.381Z,3.20
2019-02-08T02:05:48.618Z,3.20
2019-02-08T02:08:29.570Z,3.20
2019-02-08T02:11:05.982Z,3.20
2019-02-08T02:13:45.441Z,3.20
2019-02-08T02:16:23.304Z,3.30
2019-02-08T02:19:01.971Z,3.30
2019-02-08T02:21:46.012Z,3.30
2019-02-08T02:24:32.423Z,3.30
2019-02-08T02:27:10.407Z,3.30
2019-02-08T02:29:49.129Z,3.30
2019-02-08T02:32:26.418Z,3.30
2019-02-08T02:35:15.991Z,3.30
2019-02-08T02:37:49.951Z,3.30
2019-02-08T02:40:29.671Z,3.30
2019-02-08T02:43:06.231Z,3.40
2019-02-08T02:45:45.175Z,3.40
2019-02-08T02:48:21.390Z,3.40
2019-02-08T02:50:57.850Z,3.40
2019-02-08T02:53:39.164Z,3.40
2019-02-08T02:56:13.556Z,3.30
2019-02-08T02:58:51.440Z,3.30
2019-02-08T03:01:35.618Z,3.30
2019-02-08T03:04:16.336Z,3.30
2019-02-08T03:07:12.844Z,3.30
2019-02-08T03:10:19.501Z,3.20
2019-02-08T03:13:34.051Z,3.20
2019-02-08T03:16:22.231Z,3.20
2019-02-08T03:19:08.749Z,3.10
2019-02-08T03:21:45.173Z,3.10
2019-02-08T03:24:30.759Z,3.10
2019-02-08T03:27:01.239Z,3.10
2019-02-08T03:29:32.351Z,3.10
2019-02-08T03:32:03.120Z,3.10
2019-02-08T03:34:34.173Z,3.10
2019-02-08T03:37:06.566Z,3.10
2019-02-08T03:39:47.103Z,3.20
2019-02-08T03:42:36.170Z,3.20
2019-02-08T03:45:27.508Z,3.10
2019-02-08T03:48:12.518Z,3.20
2019-02-08T03:50:59.830Z,3.10
2019-02-08T03:53:56.984Z,3.00
2019-02-08T03:56:38.691Z,3.00
2019-02-08T03:59:32.248Z,3.00
2019-02-08T04:02:16.478Z,3.00
2019-02-08T04:04:54.780Z,3.00
2019-02-08T04:07:38.660Z,3.00
2019-02-08T04:10:27.574Z,3.00
2019-02-08T04:13:18.264Z,3.10
2019-02-08T04:16:10.533Z,3.10
2019-02-08T04:18:58.911Z,3.20
2019-02-08T04:21:47.007Z,3.20
2019-02-08T04:24:30.177Z,3.20
2019-02-08T04:27:13.216Z,3.20
2019-02-08T04:29:54.860Z,3.20
2019-02-08T04:32:42.596Z,3.20
2019-02-08T04:35:26.721Z,3.10
2019-02-08T04:38:05.231Z,3.20
2019-02-08T04:40:53.040Z,3.10
2019-02-08T04:43:37.991Z,3.10
2019-02-08T04:46:28.798Z,3.10
2019-02-08T04:49:18.170Z,3.10
2019-02-08T04:52:05.606Z,3.10
2019-02-08T04:54:44.998Z,3.10
2019-02-08T04:57:25.060Z,3.10
2019-02-08T05:00:09.421Z,3.10
2019-02-08T05:02:50.073Z,3.10
2019-02-08T05:05:43.052Z,3.10
2019-02-08T05:08:28.478Z,3.10
2019-02-08T05:11:19.806Z,3.10
2019-02-08T05:14:07.995Z,3.00
2019-02-08T05:16:54.691Z,3.10
2019-02-08T05:19:35.867Z,3.10
2019-02-08T05:22:16.693Z,3.20
2019-02-08T05:24:58.643Z,3.20
2019-02-08T05:27:39.784Z,3.10
2019-02-08T05:30:24.374Z,3.10
2019-02-08T05:33:08.381Z,3.10
2019-02-08T05:36:00.785Z,3.10
2019-02-08T05:38:46.556Z,3.10
2019-02-08T05:41:35.435Z,3.10
2019-02-08T05:44:23.678Z,3.10
2019-02-08T05:47:16.081Z,3.10
2019-02-08T05:50:00.937Z,3.00
2019-02-08T05:52:42.646Z,3.00
2019-02-08T05:55:33.771Z,3.00
2019-02-08T05:58:15.552Z,3.00
2019-02-08T06:01:05.077Z,3.00
2019-02-08T06:03:56.313Z,3.00
2019-02-08T06:06:43.203Z,3.00
2019-02-08T06:09:31.576Z,2.90
2019-02-08T06:12:27.879Z,2.90
2019-02-08T06:15:16.110Z,2.90
2019-02-08T06:18:01.473Z,2.90
2019-02-08T06:20:40.991Z,2.90
2019-02-08T06:23:18.106Z,2.90
2019-02-08T06:26:01.008Z,2.80
2019-02-08T06:28:40.151Z,2.80
2019-02-08T06:31:26.999Z,2.80
2019-02-08T06:34:12.869Z,2.80
2019-02-08T06:37:07.507Z,2.80
2019-02-08T06:39:53.095Z,2.80
2019-02-08T06:42:34.746Z,2.70
2019-02-08T06:45:19.845Z,2.70
2019-02-08T06:47:54.311Z,2.70
2019-02-08T06:50:30.991Z,2.60
2019-02-08T06:53:00.114Z,2.70
2019-02-08T06:55:33.620Z,2.70
2019-02-08T06:58:37.838Z,2.70
2019-02-08T07:01:46.827Z,2.60
2019-02-08T07:04:57.136Z,2.60
2019-02-08T07:07:48.131Z,2.60
2019-02-08T07:10:48.018Z,2.60
2019-02-08T07:13:51.637Z,2.60
2019-02-08T07:17:09.200Z,2.60
2019-02-08T07:20:24.194Z,2.60
2019-02-08T07:23:17.696Z,2.60
2019-02-08T07:26:20.312Z,2.60
2019-02-08T07:29:17.341Z,2.70
2019-02-08T07:32:27.698Z,2.70
2019-02-08T07:35:32.615Z,2.70
2019-02-08T07:38:40.352Z,2.70
2019-02-08T07:41:38.908Z,2.70
2019-02-08T07:44:24.146Z,2.70
2019-02-08T07:47:17.435Z,2.70
2019-02-08T07:50:05.862Z,2.80
2019-02-08T07:52:52.434Z,2.80
2019-02-08T07:55:35.732Z,2.80
2019-02-08T07:58:21.098Z,2.90
2019-02-08T08:01:05.378Z,2.90
2019-02-08T08:03:52.271Z,2.90
2019-02-08T08:06:47.110Z,3.00
2019-02-08T08:09:33.711Z,3.00
2019-02-08T08:12:20.807Z,3.00
2019-02-08T08:15:00.684Z,3.10
2019-02-08T08:17:47.797Z,3.10
2019-02-08T08:20:44.946Z,3.10
2019-02-08T08:23:37.651Z,3.10
2019-02-08T08:26:24.109Z,3.20
2019-02-08T08:29:23.056Z,3.20
2019-02-08T08:32:14.551Z,3.20
2019-02-08T08:35:17.131Z,3.20
2019-02-08T08:38:42.697Z,3.20
2019-02-08T08:42:29.030Z,3.30
2019-02-08T08:45:35.596Z,3.30
2019-02-08T08:48:44.631Z,3.40
2019-02-08T08:51:59.657Z,3.40
2019-02-08T08:55:06.355Z,3.40
2019-02-08T08:58:25.463Z,3.40
2019-02-08T09:01:43.551Z,3.50
2019-02-08T09:04:46.133Z,3.50
2019-02-08T09:07:48.663Z,3.60
2019-02-08T09:11:17.694Z,3.60
2019-02-08T09:14:42.041Z,3.60
2019-02-08T09:18:24.452Z,3.70
2019-02-08T09:21:47.727Z,3.70
2019-02-08T09:25:13.110Z,3.80
2019-02-08T09:28:11.567Z,3.80
2019-02-08T09:31:35.823Z,3.80
2019-02-08T09:34:55.219Z,3.80
2019-02-08T09:38:17.601Z,3.80
2019-02-08T09:41:42.487Z,3.70
2019-02-08T09:44:48.965Z,3.80
2019-02-08T09:47:51.408Z,3.80
2019-02-08T09:51:06.171Z,3.80
2019-02-08T09:54:20.302Z,3.80
2019-02-08T09:57:28.104Z,3.90
2019-02-08T10:00:23.142Z,3.90
2019-02-08T10:03:40.928Z,3.90
2019-02-08T10:06:50.702Z,3.90
2019-02-08T10:10:01.408Z,3.90
2019-02-08T10:13:26.455Z,3.90
2019-02-08T10:17:01.347Z,3.90
2019-02-08T10:20:19.511Z,3.90
2019-02-08T10:23:44.470Z,3.90
2019-02-08T10:27:11.174Z,4.00
2019-02-08T10:30:37.204Z,4.00
2019-02-08T10:34:08.901Z,4.00
2019-02-08T10:37:27.996Z,4.00
2019-02-08T10:40:50.523Z,4.00
2019-02-08T10:43:49.109Z,4.00
2019-02-08T10:47:05.410Z,4.00
2019-02-08T10:50:15.111Z,4.00
2019-02-08T10:53:24.907Z,4.00
2019-02-08T10:56:42.363Z,4.00
2019-02-08T11:00:24.133Z,4.10
2019-02-08T11:04:00.296Z,4.10
2019-02-08T11:06:59.561Z,4.20
2019-02-08T11:10:29.709Z,4.10
2019-02-08T11:13:48.787Z,4.20
2019-02-08T11:17:01.471Z,4.20
2019-02-08T11:19:31.601Z,4.20
2019-02-08T11:22:11.565Z,4.20
2019-02-08T11:24:47.220Z,4.10
2019-02-08T11:27:26.220Z,4.20
2019-02-08T11:30:11.591Z,4.20
2019-02-08T11:33:00.126Z,4.20
2019-02-08T11:36:05.757Z,4.20
2019-02-08T11:38:51.633Z,4.30
2019-02-08T11:41:36.326Z,4.30
2019-02-08T11:44:15.489Z,4.40
2019-02-08T11:47:00.489Z,4.50
2019-02-08T11:49:42.956Z,4.60
2019-02-08T11:52:22.359Z,4.60
2019-02-08T11:55:20.343Z,4.70
2019-02-08T11:57:59.868Z,4.70
2019-02-08T12:00:51.999Z,4.70
2019-02-08T12:03:35.017Z,4.70
2019-02-08T12:06:16.067Z,4.80
2019-02-08T12:08:56.531Z,4.80
2019-02-08T12:11:32.369Z,4.80
2019-02-08T12:14:10.114Z,4.80
2019-02-08T12:16:47.068Z,4.80
2019-02-08T12:19:24.194Z,4.80
2019-02-08T12:22:00.662Z,4.90
2019-02-08T12:24:32.879Z,5.00
2019-02-08T12:27:04.626Z,5.00
2019-02-08T12:29:34.914Z,5.10
2019-02-08T12:32:09.707Z,5.10
2019-02-08T12:34:47.025Z,5.10
2019-02-08T12:37:19.722Z,5.10
2019-02-08T12:40:05.852Z,5.00
2019-02-08T12:42:35.458Z,5.00
2019-02-08T12:45:21.694Z,4.90
2019-02-08T12:47:51.553Z,4.80
2019-02-08T12:50:22.342Z,4.80
2019-02-08T12:52:54.471Z,4.80
2019-02-08T12:55:23.938Z,4.80
2019-02-08T12:57:53.010Z,4.80
2019-02-08T13:00:23.234Z,4.80
2019-02-08T13:02:52.801Z,4.80
2019-02-08T13:05:22.790Z,4.80
2019-02-08T13:07:51.922Z,4.80
2019-02-08T13:10:22.478Z,4.80
2019-02-08T13:12:54.886Z,4.80
2019-02-08T13:15:25.597Z,4.80
2019-02-08T13:17:55.015Z,4.70
2019-02-08T13:20:24.095Z,4.70
2019-02-08T13:22:53.175Z,4.70
2019-02-08T13:25:22.683Z,4.80
2019-02-08T13:27:56.850Z,4.70
2019-02-08T13:30:28.252Z,4.70
2019-02-08T13:32:57.589Z,4.80
2019-02-08T13:35:27.209Z,4.80
2019-02-08T13:37:57.558Z,4.80
2019-02-08T13:40:29.120Z,4.90
2019-02-08T13:42:58.334Z,5.00
2019-02-08T13:45:29.107Z,5.00
2019-02-08T13:47:58.746Z,5.10
2019-02-08T13:50:29.415Z,5.10
2019-02-08T13:52:58.505Z,5.20
2019-02-08T13:55:27.626Z,5.20
2019-02-08T13:57:59.070Z,5.30
2019-02-08T14:00:30.563Z,5.30
2019-02-08T14:02:59.647Z,5.40
2019-02-08T14:05:29.582Z,5.40
2019-02-08T14:07:59.462Z,5.40
2019-02-08T14:10:28.626Z,5.40
2019-02-08T14:12:59.277Z,5.50
2019-02-08T14:15:28.608Z,5.50
2019-02-08T14:17:58.695Z,5.60
2019-02-08T14:20:28.345Z,5.60
2019-02-08T14:23:00.090Z,5.60
2019-02-08T14:25:29.162Z,5.60
2019-02-08T14:27:58.281Z,5.60
2019-02-08T14:30:33.788Z,5.60
2019-02-08T14:33:02.855Z,5.60
2019-02-08T14:35:33.619Z,5.60
2019-02-08T14:38:04.638Z,5.60
2019-02-08T14:40:35.005Z,5.60
2019-02-08T14:43:04.527Z,5.60
2019-02-08T14:45:34.007Z,5.60
2019-02-08T14:48:03.146Z,5.60
2019-02-08T14:50:32.558Z,5.50
2019-02-08T14:53:01.779Z,5.60
2019-02-08T14:55:30.927Z,5.60
2019-02-08T14:58:00.293Z,5.60
2019-02-08T15:00:29.453Z,5.60
2019-02-08T15:02:58.971Z,5.50
2019-02-08T15:05:28.404Z,5.50
2019-02-08T15:07:57.797Z,5.60
2019-02-08T15:10:29.605Z,5.60
2019-02-08T15:13:00.276Z,5.50
2019-02-08T15:15:31.445Z,5.50
2019-02-08T15:18:00.554Z,5.40
2019-02-08T15:20:30.634Z,5.40
2019-02-08T15:23:00.071Z,5.50
2019-02-08T15:25:29.979Z,5.50
2019-02-08T15:27:59.055Z,5.40
2019-02-08T15:30:30.205Z,5.40
2019-02-08T15:32:59.253Z,5.40
2019-02-08T15:35:29.490Z,5.30
2019-02-08T15:37:58.735Z,5.30
2019-02-08T15:40:31.147Z,5.30
2019-02-08T15:43:00.275Z,5.20
2019-02-08T15:45:29.334Z,5.20
2019-02-08T15:47:58.714Z,5.30
2019-02-08T15:50:31.123Z,5.20
2019-02-08T15:53:00.358Z,5.20
2019-02-08T15:55:33.979Z,5.20
2019-02-08T15:58:03.398Z,5.20
2019-02-08T16:00:32.532Z,5.20
2019-02-08T16:03:01.813Z,5.30
2019-02-08T16:05:31.416Z,5.30
2019-02-08T16:08:01.091Z,5.20
2019-02-08T16:10:30.636Z,5.30
2019-02-08T16:12:59.804Z,5.30
2019-02-08T16:15:29.547Z,5.30
2019-02-08T16:17:58.675Z,5.40
2019-02-08T16:20:30.763Z,5.40
2019-02-08T16:23:02.173Z,5.30
2019-02-08T16:25:31.649Z,5.40
2019-02-08T16:28:00.816Z,5.40
2019-02-08T16:30:33.155Z,5.40
2019-02-08T16:33:02.229Z,5.30
2019-02-08T16:35:33.659Z,5.30
2019-02-08T16:38:02.834Z,5.30
2019-02-08T16:40:32.282Z,5.30
2019-02-08T16:43:01.425Z,5.40
2019-02-08T16:45:34.598Z,5.30
2019-02-08T16:48:06.908Z,5.40
2019-02-08T16:50:36.014Z,5.40
2019-02-08T16:53:07.267Z,5.50
2019-02-08T16:55:36.408Z,5.50
2019-02-08T16:58:06.238Z,5.50
2019-02-08T17:00:35.663Z,5.50
2019-02-08T17:03:08.043Z,5.50
2019-02-08T17:05:37.333Z,5.50
2019-02-08T17:08:06.490Z,5.50
2019-02-08T17:10:36.314Z,5.50
2019-02-08T17:13:06.407Z,5.40
2019-02-08T17:15:35.701Z,5.40
2019-02-08T17:18:05.277Z,5.40
2019-02-08T17:20:36.548Z,5.30
2019-02-08T17:23:06.241Z,5.30
2019-02-08T17:25:35.321Z,5.40
2019-02-08T17:28:05.171Z,5.40
2019-02-08T17:30:34.370Z,5.40
2019-02-08T17:33:05.386Z,5.30
2019-02-08T17:35:34.886Z,5.30
2019-02-08T17:38:04.631Z,5.30
2019-02-08T17:40:34.450Z,5.30
2019-02-08T17:43:04.159Z,5.30
2019-02-08T17:45:34.838Z,5.30
2019-02-08T17:48:05.225Z,5.30
2019-02-08T17:50:35.141Z,5.20
2019-02-08T17:53:04.700Z,5.30
2019-02-08T17:55:34.065Z,5.20
2019-02-08T17:58:04.578Z,5.30
2019-02-08T18:00:42.931Z,5.20
2019-02-08T18:03:12.841Z,5.20
2019-02-08T18:05:42.627Z,5.20
2019-02-08T18:08:11.861Z,5.10
2019-02-08T18:10:41.344Z,5.10
2019-02-08T18:13:10.515Z,5.10
2019-02-08T18:15:40.044Z,5.10
2019-02-08T18:18:12.221Z,5.10
2019-02-08T18:20:43.634Z,5.10
2019-02-08T18:23:15.610Z,5.10
2019-02-08T18:25:44.669Z,5.10
2019-02-08T18:28:13.899Z,5.10
2019-02-08T18:30:42.997Z,5.10
2019-02-08T18:33:13.756Z,5.00
2019-02-08T18:35:42.997Z,5.10
2019-02-08T18:38:13.168Z,5.00
2019-02-08T18:40:42.933Z,5.10
2019-02-08T18:43:12.385Z,5.10
2019-02-08T18:45:45.956Z,5.10
2019-02-08T18:48:18.787Z,5.10
2019-02-08T18:50:51.034Z,5.10
2019-02-08T18:53:22.436Z,5.10
2019-02-08T18:55:51.528Z,5.10
2019-02-08T18:58:22.704Z,5.10
2019-02-08T19:00:53.190Z,5.10
2019-02-08T19:03:22.867Z,5.10
2019-02-08T19:05:52.230Z,5.10
2019-02-08T19:08:21.861Z,5.10
2019-02-08T19:10:52.111Z,5.10
2019-02-08T19:13:22.016Z,5.10
2019-02-08T19:15:51.075Z,5.20
2019-02-08T19:18:20.268Z,5.20
2019-02-08T19:20:49.299Z,5.20
2019-02-08T19:23:18.387Z,5.20
2019-02-08T19:25:47.931Z,5.20
2019-02-08T19:28:17.303Z,5.20
2019-02-08T19:30:46.632Z,5.20
2019-02-08T19:33:16.195Z,5.20
2019-02-08T19:35:47.373Z,5.20
2019-02-08T19:38:16.806Z,5.20
2019-02-08T19:40:46.579Z,5.20
2019-02-08T19:43:17.536Z,5.20
2019-02-08T19:45:46.972Z,5.10
2019-02-08T19:48:17.052Z,5.20
2019-02-08T19:50:46.884Z,5.10
2019-02-08T19:53:16.394Z,5.10
2019-02-08T19:55:49.975Z,5.10
2019-02-08T19:58:19.071Z,5.10
2019-02-08T20:00:48.887Z,5.10
2019-02-08T20:03:18.283Z,5.10
2019-02-08T20:05:47.508Z,5.10
2019-02-08T20:08:17.438Z,5.10
2019-02-08T20:10:52.324Z,5.10
2019-02-08T20:13:22.701Z,5.10
2019-02-08T20:15:53.236Z,5.00
2019-02-08T20:18:23.747Z,5.10
2019-02-08T20:20:54.438Z,5.10
2019-02-08T20:23:24.457Z,5.10
2019-02-08T20:25:53.592Z,5.10
2019-02-08T20:28:23.171Z,5.10
2019-02-08T20:30:56.507Z,5.10
2019-02-08T20:33:29.296Z,5.10
2019-02-08T20:36:00.760Z,5.10
2019-02-08T20:38:29.822Z,5.10
2019-02-08T20:41:00.280Z,5.10
2019-02-08T20:43:31.853Z,5.10
2019-02-08T20:46:11.824Z,5.10
2019-02-08T20:48:41.857Z,5.10
2019-02-08T20:51:19.358Z,5.10
2019-02-08T20:53:48.415Z,5.10
2019-02-08T20:56:22.577Z,5.10
2019-02-08T20:58:57.861Z,5.00
2019-02-08T21:01:30.007Z,5.00
2019-02-08T21:04:01.606Z,5.00
2019-02-08T21:06:36.451Z,5.00
2019-02-08T21:09:17.552Z,5.00
2019-02-08T21:11:52.653Z,5.00
2019-02-08T21:14:25.238Z,4.90
2019-02-08T21:16:57.341Z,4.90
2019-02-08T21:19:27.222Z,4.90
2019-02-08T21:21:58.501Z,4.90
2019-02-08T21:24:28.926Z,4.90
2019-02-08T21:26:58.454Z,4.90
2019-02-08T21:29:29.213Z,4.90
2019-02-08T21:32:02.423Z,4.90
2019-02-08T21:34:36.216Z,4.80
2019-02-08T21:37:11.325Z,4.80
2019-02-08T21:39:49.621Z,4.80
2019-02-08T21:42:18.870Z,4.80
2019-02-08T21:44:50.819Z,4.80
2019-02-08T21:47:21.434Z,4.80
2019-02-08T21:49:54.726Z,4.80
2019-02-08T21:52:25.708Z,4.80
2019-02-08T21:54:55.006Z,4.70
2019-02-08T21:57:24.051Z,4.70
2019-02-08T21:59:53.296Z,4.70
2019-02-08T22:02:22.464Z,4.70
2019-02-08T22:04:51.820Z,4.70
2019-02-08T22:07:20.884Z,4.70
2019-02-08T22:09:50.833Z,4.70
2019-02-08T22:12:20.407Z,4.70
2019-02-08T22:14:49.486Z,4.70
2019-02-08T22:17:18.746Z,4.70
2019-02-08T22:19:47.956Z,4.70
2019-02-08T22:22:18.074Z,4.70
2019-02-08T22:24:48.606Z,4.60
2019-02-08T22:27:17.731Z,4.60
2019-02-08T22:29:46.869Z,4.60
2019-02-08T22:32:16.221Z,4.60
2019-02-08T22:34:45.389Z,4.60
2019-02-08T22:37:15.515Z,4.60
2019-02-08T22:39:44.675Z,4.60
2019-02-08T22:42:13.865Z,4.60
2019-02-08T22:44:44.236Z,4.60
2019-02-08T22:47:15.397Z,4.60
2019-02-08T22:49:44.574Z,4.60
2019-02-08T22:52:15.039Z,4.60
2019-02-08T22:54:44.634Z,4.70
2019-02-08T22:57:13.877Z,4.60
2019-02-08T22:59:45.892Z,4.60
2019-02-08T23:02:15.647Z,4.60
2019-02-08T23:04:45.010Z,4.60
2019-02-08T23:07:14.622Z,4.60
2019-02-08T23:09:44.116Z,4.70
2019-02-08T23:12:13.381Z,4.60
2019-02-08T23:14:44.012Z,4.60
2019-02-08T23:17:15.031Z,4.60
2019-02-08T23:19:51.113Z,4.60
2019-02-08T23:22:20.342Z,4.60
2019-02-08T23:24:49.468Z,4.60
2019-02-08T23:27:18.821Z,4.60
2019-02-08T23:29:48.691Z,4.50
2019-02-08T23:32:19.593Z,4.50
2019-02-08T23:34:49.315Z,4.50
2019-02-08T23:37:25.699Z,4.60
2019-02-08T23:39:49.250Z,4.50
2019-02-08T23:42:30.123Z,4.50
2019-02-08T23:44:59.253Z,4.50
2019-02-08T23:47:28.668Z,4.50
2019-02-08T23:49:57.741Z,4.50
2019-02-08T23:52:26.947Z,4.40
2019-02-08T23:54:56.129Z,4.40
2019-02-08T23:57:26.236Z,4.40
2019-02-08T23:59:55.647Z,4.40
